Hemel Hempstead, United Kingdom
Current Conditions -  °F | °C
As of 3:20 AM on Saturday 29 Nov 2014 (Local Time) from EGGW Reporting Station
Clear Clear  
Wind Chill: 50°   Ceiling: Unl
Heat Index: 50°   Visibility: 4mi
Dew Point: 48°   Wind: 10mph
Humidity: 94%   Direction: 110°ESE
Pressure: 29.77"   Gusts: NA
Location:  51.75°N, 0.47°W
Report Text: EGGW 290320Z 11009KT 7000 NSC 10/09 Q1008
Loading
Personal Weather Stations






























Interactive Weather Map New forecast layout! Learn more

10-Day Weather Forecast

Advertisements
Track Severe Weather on mobile